Terminal Aerodrome Forecast
Issued by NWS Corpus Christi, TX

Home | Current Version | Previous Version | Text Only | Print | Product List | Glossary On
Versions: 1 2 3 4 5 6 7 8 9 10 11 12 13 14 15 16 17 18 19 20 21
000
FTUS44 KCRP 192300
TAFVCT
TAF
KVCT 192332Z 2000/2024 14012G18KT P6SM FEW040
     FM200100 13008KT P6SM SCT012
     FM200600 14004KT 4SM BR SCT012
     FM200900 12004KT 1SM BR BKN009
     FM201500 15012KT P6SM BKN015
     FM201800 15015G20KT P6SM SCT025=

USA.gov is the U.S. government's official web portal to all federal, state and local government web resources and services.